createdAt,value
2019-01-23T00:02:12.137Z,-2.20
2019-01-23T00:04:39.492Z,-2.00
2019-01-23T00:07:06.744Z,-2.00
2019-01-23T00:09:34.101Z,-2.40
2019-01-23T00:12:01.837Z,-2.30
2019-01-23T00:14:29.279Z,-2.30
2019-01-23T00:16:56.560Z,-2.30
2019-01-23T00:19:23.845Z,-2.20
2019-01-23T00:21:50.989Z,-2.10
2019-01-23T00:24:18.610Z,-1.90
2019-01-23T00:26:45.675Z,-1.90
2019-01-23T00:29:13.037Z,-1.90
2019-01-23T00:31:40.869Z,-2.00
2019-01-23T00:34:08.732Z,-2.00
2019-01-23T00:36:35.624Z,-2.10
2019-01-23T00:39:06.388Z,-2.00
2019-01-23T00:41:33.636Z,-2.10
2019-01-23T00:44:00.717Z,-2.30
2019-01-23T00:46:28.032Z,-2.20
2019-01-23T00:48:55.633Z,-2.50
2019-01-23T00:51:22.704Z,-2.60
2019-01-23T00:53:49.533Z,-2.50
2019-01-23T00:56:16.966Z,-2.40
2019-01-23T00:58:49.133Z,-2.40
2019-01-23T01:01:13.893Z,-2.50
2019-01-23T01:03:41.350Z,-2.30
2019-01-23T01:06:08.913Z,-2.20
2019-01-23T01:08:36.440Z,-2.00
2019-01-23T01:11:03.706Z,-2.00
2019-01-23T01:13:31.006Z,-2.00
2019-01-23T01:15:58.524Z,-1.90
2019-01-23T01:18:25.920Z,-1.90
2019-01-23T01:20:53.898Z,-1.90
2019-01-23T01:23:21.604Z,-1.80
2019-01-23T01:25:48.686Z,-1.80
2019-01-23T01:28:16.417Z,-1.70
2019-01-23T01:30:43.727Z,-1.70
2019-01-23T01:33:11.367Z,-1.80
2019-01-23T01:35:39.053Z,-1.80
2019-01-23T01:38:06.299Z,-1.80
2019-01-23T01:40:33.577Z,-1.70
2019-01-23T01:43:01.269Z,-1.80
2019-01-23T01:45:28.840Z,-1.70
2019-01-23T01:47:56.300Z,-1.90
2019-01-23T01:50:23.598Z,-1.80
2019-01-23T01:52:51.408Z,-1.80
2019-01-23T01:55:19.193Z,-1.70
2019-01-23T01:57:46.757Z,-1.80
2019-01-23T02:00:16.284Z,-1.70
2019-01-23T02:02:43.458Z,-1.80
2019-01-23T02:05:10.507Z,-2.00
2019-01-23T02:07:37.543Z,-1.90
2019-01-23T02:10:06.490Z,-2.00
2019-01-23T02:12:34.118Z,-1.90
2019-01-23T02:15:01.824Z,-2.00
2019-01-23T02:17:28.893Z,-2.00
2019-01-23T02:19:55.959Z,-2.10
2019-01-23T02:22:23.489Z,-2.10
2019-01-23T02:24:50.925Z,-2.00
2019-01-23T02:27:18.289Z,-1.90
2019-01-23T02:29:46.192Z,-1.80
2019-01-23T02:32:14.034Z,-1.80
2019-01-23T02:34:41.374Z,-1.80
2019-01-23T02:37:09.173Z,-2.00
2019-01-23T02:39:36.123Z,-2.00
2019-01-23T02:42:03.591Z,-1.80
2019-01-23T02:44:31.228Z,-1.70
2019-01-23T02:46:58.633Z,-1.60
2019-01-23T02:49:26.064Z,-1.60
2019-01-23T02:51:53.465Z,-1.60
2019-01-23T02:54:20.807Z,-1.60
2019-01-23T02:56:48.137Z,-1.80
2019-01-23T02:59:17.544Z,-1.90
2019-01-23T03:01:44.806Z,-2.00
2019-01-23T03:04:12.542Z,-2.00
2019-01-23T03:06:39.876Z,-2.10
2019-01-23T03:09:07.224Z,-2.20
2019-01-23T03:11:34.645Z,-2.00
2019-01-23T03:14:01.803Z,-2.10
2019-01-23T03:16:29.489Z,-2.20
2019-01-23T03:18:56.805Z,-2.20
2019-01-23T03:21:24.321Z,-2.20
2019-01-23T03:23:51.829Z,-2.30
2019-01-23T03:26:19.538Z,-2.10
2019-01-23T03:28:47.005Z,-2.20
2019-01-23T03:31:14.491Z,-2.40
2019-01-23T03:33:42.219Z,-2.20
2019-01-23T03:36:09.460Z,-2.20
2019-01-23T03:38:36.754Z,-2.10
2019-01-23T03:41:03.997Z,-2.10
2019-01-23T03:43:31.333Z,-1.90
2019-01-23T03:45:58.872Z,-1.80
2019-01-23T03:48:25.954Z,-1.80
2019-01-23T03:50:53.006Z,-1.70
2019-01-23T03:53:20.005Z,-1.80
2019-01-23T03:55:47.762Z,-2.00
2019-01-23T03:58:15.028Z,-2.00
2019-01-23T04:00:42.690Z,-1.90
2019-01-23T04:03:10.320Z,-1.80
2019-01-23T04:05:38.275Z,-1.90
2019-01-23T04:08:05.427Z,-2.00
2019-01-23T04:10:32.792Z,-2.30
2019-01-23T04:12:59.844Z,-2.30
2019-01-23T04:15:27.259Z,-2.40
2019-01-23T04:17:54.406Z,-2.30
2019-01-23T04:20:22.101Z,-2.20
2019-01-23T04:22:49.659Z,-2.10
2019-01-23T04:25:17.473Z,-2.40
2019-01-23T04:27:44.784Z,-2.50
2019-01-23T04:30:14.974Z,-2.50
2019-01-23T04:32:42.030Z,-2.40
2019-01-23T04:35:09.562Z,-2.40
2019-01-23T04:37:36.975Z,-2.30
2019-01-23T04:40:05.711Z,-2.20
2019-01-23T04:42:32.973Z,-2.20
2019-01-23T04:45:00.545Z,-2.40
2019-01-23T04:47:27.357Z,-2.30
2019-01-23T04:49:54.407Z,-2.30
2019-01-23T04:52:39.609Z,-2.20
2019-01-23T04:55:06.996Z,-2.10
2019-01-23T04:57:34.616Z,-2.30
2019-01-23T05:00:02.280Z,-2.20
2019-01-23T05:02:29.985Z,-2.20
2019-01-23T05:04:57.311Z,-2.10
2019-01-23T05:07:24.623Z,-2.10
2019-01-23T05:09:52.028Z,-2.30
2019-01-23T05:12:19.394Z,-2.20
2019-01-23T05:14:46.440Z,-2.20
2019-01-23T05:17:14.167Z,-2.20
2019-01-23T05:19:40.968Z,-2.20
2019-01-23T05:22:08.148Z,-2.40
2019-01-23T05:24:35.510Z,-2.40
2019-01-23T05:27:03.145Z,-2.40
2019-01-23T05:29:30.997Z,-2.20
2019-01-23T05:31:58.445Z,-2.10
2019-01-23T05:34:25.674Z,-2.00
2019-01-23T05:36:52.757Z,-2.00
2019-01-23T05:39:20.595Z,-2.10
2019-01-23T05:41:47.817Z,-2.10
2019-01-23T05:44:15.135Z,-2.30
2019-01-23T05:46:42.453Z,-2.30
2019-01-23T05:49:09.519Z,-2.50
2019-01-23T05:51:36.674Z,-2.50
2019-01-23T05:54:03.920Z,-2.40
2019-01-23T05:56:30.998Z,-2.40
2019-01-23T05:58:58.656Z,-2.40
2019-01-23T06:01:26.001Z,-2.60
2019-01-23T06:03:53.697Z,-2.70
2019-01-23T06:06:20.567Z,-2.60
2019-01-23T06:08:47.914Z,-2.80
2019-01-23T06:11:15.226Z,-2.90
2019-01-23T06:13:42.298Z,-3.00
2019-01-23T06:16:09.818Z,-3.00
2019-01-23T06:18:36.877Z,-2.90
2019-01-23T06:21:04.146Z,-2.80
2019-01-23T06:23:31.476Z,-2.70
2019-01-23T06:25:58.655Z,-2.70
2019-01-23T06:28:25.718Z,-2.70
2019-01-23T06:30:53.046Z,-2.80
2019-01-23T06:33:20.098Z,-2.60
2019-01-23T06:35:47.146Z,-2.70
2019-01-23T06:38:14.465Z,-2.90
2019-01-23T06:40:41.627Z,-2.90
2019-01-23T06:43:08.881Z,-2.80
2019-01-23T06:45:36.302Z,-2.90
2019-01-23T06:48:04.098Z,-2.80
2019-01-23T06:50:31.433Z,-2.80
2019-01-23T06:52:59.141Z,-2.70
2019-01-23T06:55:26.293Z,-2.70
2019-01-23T06:57:53.388Z,-2.60
2019-01-23T07:00:22.660Z,-2.60
2019-01-23T07:02:50.188Z,-2.70
2019-01-23T07:05:17.446Z,-2.70
2019-01-23T07:07:44.980Z,-2.90
2019-01-23T07:10:15.854Z,-3.00
2019-01-23T07:12:43.274Z,-3.00
2019-01-23T07:15:10.545Z,-3.10
2019-01-23T07:17:38.041Z,-3.10
2019-01-23T07:20:07.816Z,-3.10
2019-01-23T07:22:34.964Z,-2.90
2019-01-23T07:25:02.504Z,-2.90
2019-01-23T07:27:29.817Z,-2.90
2019-01-23T07:29:56.968Z,-2.80
2019-01-23T07:32:24.664Z,-2.90
2019-01-23T07:34:51.838Z,-2.90
2019-01-23T07:37:19.274Z,-2.90
2019-01-23T07:39:46.417Z,-2.90
2019-01-23T07:42:13.560Z,-2.90
2019-01-23T07:44:40.630Z,-2.90
2019-01-23T07:47:08.049Z,-3.00
2019-01-23T07:49:35.635Z,-3.20
2019-01-23T07:52:03.144Z,-3.20
2019-01-23T07:54:30.414Z,-3.20
2019-01-23T07:56:57.567Z,-3.30
2019-01-23T07:59:24.897Z,-3.30
2019-01-23T08:01:52.136Z,-3.40
2019-01-23T08:04:19.874Z,-3.40
2019-01-23T08:06:47.035Z,-3.40
2019-01-23T08:09:14.286Z,-3.30
2019-01-23T08:11:41.552Z,-3.20
2019-01-23T08:14:09.053Z,-3.00
2019-01-23T08:16:36.208Z,-3.20
2019-01-23T08:19:03.683Z,-3.30
2019-01-23T08:21:31.117Z,-3.30
2019-01-23T08:23:58.190Z,-3.20
2019-01-23T08:26:25.527Z,-3.10
2019-01-23T08:28:52.759Z,-2.90
2019-01-23T08:31:20.565Z,-2.80
2019-01-23T08:33:47.947Z,-2.90
2019-01-23T08:36:15.214Z,-3.00
2019-01-23T08:38:42.263Z,-2.90
2019-01-23T08:41:09.974Z,-3.00
2019-01-23T08:43:37.377Z,-3.10
2019-01-23T08:46:04.930Z,-3.10
2019-01-23T08:48:32.256Z,-3.00
2019-01-23T08:50:59.814Z,-2.80
2019-01-23T08:53:27.418Z,-2.80
2019-01-23T08:55:54.577Z,-2.80
2019-01-23T08:58:22.033Z,-2.90
2019-01-23T09:00:49.198Z,-2.80
2019-01-23T09:03:16.089Z,-2.80
2019-01-23T09:05:43.141Z,-2.70
2019-01-23T09:08:10.954Z,-2.80
2019-01-23T09:10:38.197Z,-2.60
2019-01-23T09:13:05.642Z,-2.70
2019-01-23T09:15:33.078Z,-2.90
2019-01-23T09:18:00.354Z,-2.80
2019-01-23T09:20:27.777Z,-2.80
2019-01-23T09:22:55.090Z,-2.60
2019-01-23T09:25:22.858Z,-2.80
2019-01-23T09:27:49.909Z,-3.00
2019-01-23T09:30:25.448Z,-3.00
2019-01-23T09:33:26.122Z,-2.90
2019-01-23T09:36:04.353Z,-2.80
2019-01-23T09:38:58.605Z,-2.90
2019-01-23T09:42:00.729Z,-2.90
2019-01-23T09:45:00.349Z,-2.90
2019-01-23T09:47:36.824Z,-2.70
2019-01-23T09:50:32.371Z,-2.70
2019-01-23T09:53:34.261Z,-2.70
2019-01-23T09:56:01.527Z,-2.80
2019-01-23T09:58:29.090Z,-2.90
2019-01-23T10:00:59.879Z,-2.90
2019-01-23T10:03:25.818Z,-2.90
2019-01-23T10:05:52.882Z,-3.00
2019-01-23T10:08:19.789Z,-2.90
2019-01-23T10:10:46.971Z,-3.00
2019-01-23T10:13:14.226Z,-3.00
2019-01-23T10:15:50.120Z,-2.90
2019-01-23T10:18:17.110Z,-2.70
2019-01-23T10:20:44.097Z,-2.70
2019-01-23T10:23:12.354Z,-2.70
2019-01-23T10:25:39.528Z,-2.80
2019-01-23T10:28:06.439Z,-2.80
2019-01-23T10:30:33.585Z,-2.80
2019-01-23T10:33:00.677Z,-2.80
2019-01-23T10:35:27.926Z,-2.80
2019-01-23T10:37:54.981Z,-2.80
2019-01-23T10:40:21.893Z,-2.80
2019-01-23T10:42:48.890Z,-2.90
2019-01-23T10:45:16.153Z,-2.90
2019-01-23T10:47:43.902Z,-3.00
2019-01-23T10:50:11.864Z,-3.00
2019-01-23T10:52:39.294Z,-2.80
2019-01-23T10:55:06.602Z,-2.80
2019-01-23T10:57:34.159Z,-2.90
2019-01-23T11:00:01.703Z,-2.90
2019-01-23T11:02:29.402Z,-2.90
2019-01-23T11:04:56.548Z,-2.90
2019-01-23T11:07:24.173Z,-2.80
2019-01-23T11:09:51.353Z,-2.80
2019-01-23T11:12:18.797Z,-2.80
2019-01-23T11:14:46.245Z,-2.80
2019-01-23T11:17:13.434Z,-2.80
2019-01-23T11:19:41.199Z,-2.80
2019-01-23T11:22:08.713Z,-2.80
2019-01-23T11:24:36.002Z,-2.90
2019-01-23T11:27:03.555Z,-3.00
2019-01-23T11:29:30.861Z,-3.10
2019-01-23T11:31:58.102Z,-3.20
2019-01-23T11:34:25.528Z,-3.10
2019-01-23T11:36:52.564Z,-3.20
2019-01-23T11:39:20.394Z,-3.10
2019-01-23T11:41:47.222Z,-3.20
2019-01-23T11:44:14.556Z,-3.20
2019-01-23T11:46:41.572Z,-3.10
2019-01-23T11:49:08.583Z,-2.90
2019-01-23T11:51:35.757Z,-2.70
2019-01-23T11:54:03.288Z,-2.60
2019-01-23T11:56:30.574Z,-2.50
2019-01-23T11:58:57.873Z,-2.80
2019-01-23T12:01:27.590Z,-2.90
2019-01-23T12:03:54.374Z,-2.90
2019-01-23T12:06:21.894Z,-3.00
2019-01-23T12:08:49.437Z,-3.00
2019-01-23T12:11:16.976Z,-3.00
2019-01-23T12:13:44.553Z,-3.00
2019-01-23T12:16:11.800Z,-3.10
2019-01-23T12:18:39.024Z,-3.10
2019-01-23T12:21:06.173Z,-3.20
2019-01-23T12:23:33.694Z,-3.10
2019-01-23T12:26:01.327Z,-3.00
2019-01-23T12:28:28.881Z,-2.90
2019-01-23T12:30:56.306Z,-3.00
2019-01-23T12:33:23.749Z,-3.00
2019-01-23T12:35:51.272Z,-3.00
2019-01-23T12:38:18.606Z,-3.10
2019-01-23T12:40:46.199Z,-3.00
2019-01-23T12:43:13.576Z,-3.20
2019-01-23T12:45:41.152Z,-3.10
2019-01-23T12:48:08.487Z,-3.10
2019-01-23T12:50:36.020Z,-3.10
2019-01-23T12:53:03.854Z,-3.00
2019-01-23T12:55:31.288Z,-2.90
2019-01-23T12:57:58.725Z,-3.00
2019-01-23T13:00:27.783Z,-3.00
2019-01-23T13:02:55.040Z,-2.90
2019-01-23T13:05:22.388Z,-2.90
2019-01-23T13:07:50.205Z,-2.80
2019-01-23T13:10:18.356Z,-2.90
2019-01-23T13:12:45.370Z,-2.80
2019-01-23T13:15:14.580Z,-2.80
2019-01-23T13:17:41.877Z,-2.90
2019-01-23T13:20:11.372Z,-2.80
2019-01-23T13:22:39.811Z,-2.60
2019-01-23T13:25:10.078Z,-2.80
2019-01-23T13:27:37.598Z,-2.90
2019-01-23T13:30:06.965Z,-2.90
2019-01-23T13:32:34.234Z,-2.80
2019-01-23T13:35:01.653Z,-2.80
2019-01-23T13:37:29.006Z,-2.90
2019-01-23T13:39:56.418Z,-2.90
2019-01-23T13:42:23.833Z,-3.00
2019-01-23T13:44:51.289Z,-3.00
2019-01-23T13:47:18.355Z,-2.90
2019-01-23T13:49:45.672Z,-3.00
2019-01-23T13:52:13.268Z,-2.90
2019-01-23T13:54:40.833Z,-2.90
2019-01-23T13:57:08.618Z,-2.90
2019-01-23T13:59:35.966Z,-2.80
2019-01-23T14:02:03.254Z,-2.70
2019-01-23T14:04:30.861Z,-2.80
2019-01-23T14:06:58.364Z,-2.70
2019-01-23T14:09:26.046Z,-2.70
2019-01-23T14:11:53.578Z,-2.70
2019-01-23T14:14:20.912Z,-2.70
2019-01-23T14:16:48.354Z,-2.70
2019-01-23T14:19:15.413Z,-2.70
2019-01-23T14:21:43.126Z,-2.90
2019-01-23T14:24:10.393Z,-2.90
2019-01-23T14:26:37.842Z,-2.80
2019-01-23T14:29:05.017Z,-2.80
2019-01-23T14:31:32.085Z,-2.80
2019-01-23T14:33:59.438Z,-2.80
2019-01-23T14:36:26.730Z,-2.80
2019-01-23T14:38:53.633Z,-2.80
2019-01-23T14:41:20.972Z,-2.90
2019-01-23T14:43:48.009Z,-2.90
2019-01-23T14:46:15.070Z,-2.90
2019-01-23T14:48:42.648Z,-3.00
2019-01-23T14:51:10.182Z,-2.90
2019-01-23T14:53:37.600Z,-2.90
2019-01-23T14:56:05.278Z,-2.80
2019-01-23T14:58:32.582Z,-2.80
2019-01-23T15:00:59.781Z,-2.80
2019-01-23T15:03:26.934Z,-2.90
2019-01-23T15:05:54.330Z,-2.80
2019-01-23T15:08:22.094Z,-2.90
2019-01-23T15:10:49.244Z,-2.90
2019-01-23T15:13:16.825Z,-3.00
2019-01-23T15:15:44.517Z,-3.00
2019-01-23T15:18:12.274Z,-2.90
2019-01-23T15:20:40.069Z,-2.90
2019-01-23T15:23:07.232Z,-3.00
2019-01-23T15:25:34.774Z,-3.00
2019-01-23T15:28:02.084Z,-2.90
2019-01-23T15:30:29.474Z,-3.00
2019-01-23T15:32:56.893Z,-3.10
2019-01-23T15:35:24.549Z,-3.10
2019-01-23T15:37:52.343Z,-3.20
2019-01-23T15:40:22.096Z,-3.20
2019-01-23T15:42:49.749Z,-3.30
2019-01-23T15:45:16.768Z,-3.30
2019-01-23T15:47:44.582Z,-3.30
2019-01-23T15:50:14.623Z,-3.20
2019-01-23T15:52:41.845Z,-3.20
2019-01-23T15:55:11.057Z,-3.20
2019-01-23T15:57:37.967Z,-3.20
2019-01-23T16:00:09.058Z,-3.10
2019-01-23T16:02:36.580Z,-3.10
2019-01-23T16:05:04.406Z,-3.00
2019-01-23T16:07:31.222Z,-3.10
2019-01-23T16:09:58.555Z,-3.10
2019-01-23T16:12:25.452Z,-3.10
2019-01-23T16:14:53.076Z,-3.00
2019-01-23T16:17:20.238Z,-3.10
2019-01-23T16:19:47.047Z,-3.20
2019-01-23T16:22:14.530Z,-3.10
2019-01-23T16:24:41.848Z,-3.20
2019-01-23T16:27:09.568Z,-3.20
2019-01-23T16:29:36.887Z,-3.10
2019-01-23T16:32:04.493Z,-3.20
2019-01-23T16:34:31.814Z,-3.30
2019-01-23T16:36:59.865Z,-3.20
2019-01-23T16:39:27.331Z,-3.20
2019-01-23T16:42:02.051Z,-3.00
2019-01-23T16:44:29.164Z,-2.90
2019-01-23T16:46:56.337Z,-3.10
2019-01-23T16:49:24.229Z,-3.00
2019-01-23T16:51:51.638Z,-3.10
2019-01-23T16:54:19.089Z,-3.10
2019-01-23T16:56:47.017Z,-3.10
2019-01-23T16:59:14.812Z,-3.10
2019-01-23T17:01:42.409Z,-3.20
2019-01-23T17:04:09.789Z,-3.30
2019-01-23T17:06:37.314Z,-3.20
2019-01-23T17:09:07.090Z,-3.30
2019-01-23T17:11:34.517Z,-3.20
2019-01-23T17:14:02.300Z,-3.40
2019-01-23T17:16:29.713Z,-3.20
2019-01-23T17:18:56.770Z,-3.10
2019-01-23T17:21:24.399Z,-3.10
2019-01-23T17:23:51.745Z,-3.10
2019-01-23T17:26:19.018Z,-3.00
2019-01-23T17:28:46.829Z,-3.00
2019-01-23T17:31:14.551Z,-2.80
2019-01-23T17:33:41.726Z,-2.70
2019-01-23T17:36:09.210Z,-2.60
2019-01-23T17:38:36.381Z,-2.80
2019-01-23T17:41:03.856Z,-3.00
2019-01-23T17:43:31.926Z,-3.00
2019-01-23T17:45:59.118Z,-2.90
2019-01-23T17:48:28.403Z,-2.90
2019-01-23T17:50:55.629Z,-2.90
2019-01-23T17:53:22.967Z,-2.80
2019-01-23T17:55:50.556Z,-2.70
2019-01-23T17:58:18.153Z,-2.70
2019-01-23T18:00:53.237Z,-2.90
2019-01-23T18:03:20.534Z,-3.00
2019-01-23T18:05:51.188Z,-3.20
2019-01-23T18:08:17.086Z,-3.00
2019-01-23T18:10:44.366Z,-3.10
2019-01-23T18:13:11.355Z,-3.00
2019-01-23T18:15:38.207Z,-3.10
2019-01-23T18:18:06.290Z,-3.10
2019-01-23T18:20:34.298Z,-2.90
2019-01-23T18:23:01.759Z,-3.00
2019-01-23T18:25:28.809Z,-2.90
2019-01-23T18:27:56.089Z,-3.00
2019-01-23T18:30:29.128Z,-3.20
2019-01-23T18:33:00.276Z,-3.20
2019-01-23T18:36:08.658Z,-3.20
2019-01-23T18:38:56.914Z,-3.10
2019-01-23T18:42:11.041Z,-3.20
2019-01-23T18:45:01.533Z,-3.00
2019-01-23T18:47:48.266Z,-3.00
2019-01-23T18:51:05.045Z,-3.10
2019-01-23T18:53:31.957Z,-3.10
2019-01-23T18:55:59.594Z,-3.10
2019-01-23T18:58:27.230Z,-3.10
2019-01-23T19:00:54.156Z,-3.10
2019-01-23T19:03:20.969Z,-3.20
2019-01-23T19:05:48.002Z,-3.10
2019-01-23T19:08:15.340Z,-3.10
2019-01-23T19:10:42.843Z,-3.20
2019-01-23T19:13:09.869Z,-3.20
2019-01-23T19:15:37.002Z,-3.20
2019-01-23T19:18:04.151Z,-3.10
2019-01-23T19:20:31.494Z,-3.10
2019-01-23T19:22:58.607Z,-3.20
2019-01-23T19:25:25.786Z,-3.10
2019-01-23T19:27:52.826Z,-3.00
2019-01-23T19:30:20.730Z,-2.90
2019-01-23T19:32:47.922Z,-3.10
2019-01-23T19:35:15.079Z,-3.10
2019-01-23T19:37:42.104Z,-3.00
2019-01-23T19:40:10.044Z,-2.90
2019-01-23T19:42:36.991Z,-3.10
2019-01-23T19:45:06.452Z,-3.20
2019-01-23T19:47:34.261Z,-3.30
2019-01-23T19:50:01.350Z,-3.30
2019-01-23T19:52:28.271Z,-3.30
2019-01-23T19:54:55.589Z,-3.30
2019-01-23T19:57:22.753Z,-3.30
2019-01-23T19:59:49.567Z,-3.20
2019-01-23T20:02:16.387Z,-3.30
2019-01-23T20:04:43.380Z,-3.40
2019-01-23T20:07:10.706Z,-3.40
2019-01-23T20:09:37.894Z,-3.50
2019-01-23T20:12:05.174Z,-3.20
2019-01-23T20:14:32.397Z,-3.10
2019-01-23T20:16:59.763Z,-3.00
2019-01-23T20:19:26.942Z,-3.10
2019-01-23T20:21:54.335Z,-3.00
2019-01-23T20:24:21.629Z,-3.10
2019-01-23T20:26:48.829Z,-3.20
2019-01-23T20:29:16.191Z,-3.10
2019-01-23T20:31:46.124Z,-3.00
2019-01-23T20:34:13.054Z,-3.10
2019-01-23T20:36:40.137Z,-3.00
2019-01-23T20:39:08.931Z,-3.20
2019-01-23T20:41:36.089Z,-3.20
2019-01-23T20:44:03.718Z,-3.40
2019-01-23T20:46:30.785Z,-3.20
2019-01-23T20:48:58.064Z,-3.30
2019-01-23T20:51:24.973Z,-3.30
2019-01-23T20:53:52.038Z,-3.40
2019-01-23T20:56:18.937Z,-3.60
2019-01-23T20:58:45.926Z,-3.50
2019-01-23T21:01:12.833Z,-3.30
2019-01-23T21:03:40.055Z,-3.30
2019-01-23T21:06:07.320Z,-3.40
2019-01-23T21:08:34.522Z,-3.20
2019-01-23T21:11:01.438Z,-3.00
2019-01-23T21:13:28.883Z,-2.90
2019-01-23T21:15:55.947Z,-3.00
2019-01-23T21:18:23.008Z,-2.90
2019-01-23T21:20:50.057Z,-2.90
2019-01-23T21:23:17.277Z,-2.90
2019-01-23T21:25:44.610Z,-2.90
2019-01-23T21:28:12.177Z,-3.00
2019-01-23T21:30:39.118Z,-3.10
2019-01-23T21:33:06.440Z,-3.30
2019-01-23T21:35:33.968Z,-3.10
2019-01-23T21:38:00.978Z,-3.00
2019-01-23T21:40:30.187Z,-3.10
2019-01-23T21:42:57.450Z,-3.30
2019-01-23T21:45:25.898Z,-3.10
2019-01-23T21:47:52.988Z,-3.00
2019-01-23T21:50:22.601Z,-2.90
2019-01-23T21:52:49.794Z,-3.00
2019-01-23T21:55:18.782Z,-3.20
2019-01-23T21:57:46.142Z,-3.50
2019-01-23T22:00:16.754Z,-3.40
2019-01-23T22:02:44.011Z,-3.30
2019-01-23T22:05:11.403Z,-3.20
2019-01-23T22:07:38.663Z,-3.10
2019-01-23T22:10:06.671Z,-3.10
2019-01-23T22:12:33.599Z,-2.90
2019-01-23T22:15:00.793Z,-2.90
2019-01-23T22:17:28.181Z,-2.80
2019-01-23T22:19:55.384Z,-2.90
2019-01-23T22:22:22.551Z,-2.90
2019-01-23T22:24:49.414Z,-2.90
2019-01-23T22:27:16.493Z,-2.90
2019-01-23T22:29:43.566Z,-2.70
2019-01-23T22:32:10.573Z,-2.60
2019-01-23T22:34:37.429Z,-2.70
2019-01-23T22:37:05.060Z,-2.60
2019-01-23T22:39:32.306Z,-2.80
2019-01-23T22:41:59.394Z,-2.80
2019-01-23T22:44:26.204Z,-2.70
2019-01-23T22:46:53.624Z,-2.70
2019-01-23T22:49:20.500Z,-2.80
2019-01-23T22:51:47.327Z,-2.90
2019-01-23T22:54:14.138Z,-3.00
2019-01-23T22:56:41.526Z,-3.00
2019-01-23T22:59:08.448Z,-3.00
2019-01-23T23:01:35.483Z,-3.00
2019-01-23T23:04:03.385Z,-3.00
2019-01-23T23:06:30.821Z,-3.00
2019-01-23T23:08:57.990Z,-2.90
2019-01-23T23:11:25.099Z,-3.00
2019-01-23T23:13:52.004Z,-3.10
2019-01-23T23:16:18.925Z,-3.00
2019-01-23T23:18:46.034Z,-3.00
2019-01-23T23:21:13.227Z,-2.90
2019-01-23T23:23:40.233Z,-2.90
2019-01-23T23:26:07.538Z,-3.00
2019-01-23T23:28:34.550Z,-2.90
2019-01-23T23:31:01.884Z,-3.00
2019-01-23T23:33:29.126Z,-3.00
2019-01-23T23:35:56.202Z,-2.90
2019-01-23T23:38:23.132Z,-2.90
2019-01-23T23:40:49.942Z,-2.90
2019-01-23T23:43:17.118Z,-2.90
2019-01-23T23:45:43.919Z,-2.90
2019-01-23T23:48:10.925Z,-3.10
2019-01-23T23:50:38.084Z,-3.00
2019-01-23T23:53:05.504Z,-3.00
2019-01-23T23:55:32.413Z,-3.00
2019-01-23T23:57:59.229Z,-3.00
